sensor_id;sensor_type;location;lat;lon;timestamp;P1;durP1;ratioP1;P2;durP2;ratioP2
15035;SDS011;7615;48.574;13.474;2023-09-18T00:00:47;6.00;;;5.45;;
15035;SDS011;7615;48.574;13.474;2023-09-18T00:03:15;6.18;;;5.55;;
15035;SDS011;7615;48.574;13.474;2023-09-18T00:05:44;6.85;;;6.25;;
15035;SDS011;7615;48.574;13.474;2023-09-18T00:08:13;6.90;;;6.20;;
15035;SDS011;7615;48.574;13.474;2023-09-18T00:10:40;6.50;;;5.90;;
15035;SDS011;7615;48.574;13.474;2023-09-18T00:13:08;6.72;;;6.13;;
15035;SDS011;7615;48.574;13.474;2023-09-18T00:15:36;8.80;;;6.47;;
15035;SDS011;7615;48.574;13.474;2023-09-18T00:18:03;6.57;;;5.85;;
15035;SDS011;7615;48.574;13.474;2023-09-18T00:20:31;7.13;;;6.13;;
15035;SDS011;7615;48.574;13.474;2023-09-18T00:23:00;9.23;;;5.47;;
15035;SDS011;7615;48.574;13.474;2023-09-18T00:25:27;6.60;;;5.95;;
15035;SDS011;7615;48.574;13.474;2023-09-18T00:27:55;6.50;;;5.80;;
15035;SDS011;7615;48.574;13.474;2023-09-18T00:30:24;6.97;;;5.65;;
15035;SDS011;7615;48.574;13.474;2023-09-18T00:32:56;7.18;;;5.88;;
15035;SDS011;7615;48.574;13.474;2023-09-18T00:35:24;7.50;;;5.72;;
15035;SDS011;7615;48.574;13.474;2023-09-18T00:37:53;5.38;;;4.97;;
15035;SDS011;7615;48.574;13.474;2023-09-18T00:40:22;6.85;;;5.70;;
15035;SDS011;7615;48.574;13.474;2023-09-18T00:42:50;8.15;;;5.82;;
15035;SDS011;7615;48.574;13.474;2023-09-18T00:45:18;6.03;;;5.40;;
15035;SDS011;7615;48.574;13.474;2023-09-18T00:47:46;8.38;;;6.30;;
15035;SDS011;7615;48.574;13.474;2023-09-18T00:50:13;6.43;;;5.68;;
15035;SDS011;7615;48.574;13.474;2023-09-18T00:52:41;5.80;;;5.30;;
15035;SDS011;7615;48.574;13.474;2023-09-18T00:55:09;5.93;;;5.28;;
15035;SDS011;7615;48.574;13.474;2023-09-18T00:57:39;7.35;;;4.95;;
15035;SDS011;7615;48.574;13.474;2023-09-18T01:00:07;6.47;;;5.18;;
15035;SDS011;7615;48.574;13.474;2023-09-18T01:02:35;5.80;;;5.30;;
15035;SDS011;7615;48.574;13.474;2023-09-18T01:05:03;6.15;;;5.55;;
15035;SDS011;7615;48.574;13.474;2023-09-18T01:07:31;7.43;;;6.25;;
15035;SDS011;7615;48.574;13.474;2023-09-18T01:09:58;7.30;;;6.60;;
15035;SDS011;7615;48.574;13.474;2023-09-18T01:12:27;6.93;;;5.93;;
15035;SDS011;7615;48.574;13.474;2023-09-18T01:15:01;6.43;;;5.75;;
15035;SDS011;7615;48.574;13.474;2023-09-18T01:17:30;5.63;;;5.13;;
15035;SDS011;7615;48.574;13.474;2023-09-18T01:19:57;5.60;;;5.00;;
15035;SDS011;7615;48.574;13.474;2023-09-18T01:22:30;5.68;;;5.25;;
15035;SDS011;7615;48.574;13.474;2023-09-18T01:24:58;6.18;;;5.55;;
15035;SDS011;7615;48.574;13.474;2023-09-18T01:27:26;12.82;;;7.05;;
15035;SDS011;7615;48.574;13.474;2023-09-18T01:29:53;6.50;;;5.90;;
15035;SDS011;7615;48.574;13.474;2023-09-18T01:32:21;6.70;;;5.97;;
15035;SDS011;7615;48.574;13.474;2023-09-18T01:34:53;6.50;;;5.90;;
15035;SDS011;7615;48.574;13.474;2023-09-18T01:37:22;6.63;;;5.75;;
15035;SDS011;7615;48.574;13.474;2023-09-18T01:39:51;6.20;;;5.60;;
15035;SDS011;7615;48.574;13.474;2023-09-18T01:42:19;6.18;;;5.38;;
15035;SDS011;7615;48.574;13.474;2023-09-18T01:44:47;6.07;;;5.50;;
15035;SDS011;7615;48.574;13.474;2023-09-18T01:47:15;8.05;;;5.63;;
15035;SDS011;7615;48.574;13.474;2023-09-18T01:49:44;5.07;;;4.68;;
15035;SDS011;7615;48.574;13.474;2023-09-18T01:52:12;5.50;;;5.10;;
15035;SDS011;7615;48.574;13.474;2023-09-18T01:54:40;7.30;;;5.10;;
15035;SDS011;7615;48.574;13.474;2023-09-18T01:57:10;5.03;;;4.57;;
15035;SDS011;7615;48.574;13.474;2023-09-18T01:59:38;5.85;;;5.40;;
15035;SDS011;7615;48.574;13.474;2023-09-18T02:02:07;13.45;;;6.05;;
15035;SDS011;7615;48.574;13.474;2023-09-18T02:04:37;7.82;;;5.35;;
15035;SDS011;7615;48.574;13.474;2023-09-18T02:07:05;8.27;;;5.80;;
15035;SDS011;7615;48.574;13.474;2023-09-18T02:09:32;6.82;;;5.03;;
15035;SDS011;7615;48.574;13.474;2023-09-18T02:12:00;5.82;;;5.30;;
15035;SDS011;7615;48.574;13.474;2023-09-18T02:14:37;7.72;;;5.25;;
15035;SDS011;7615;48.574;13.474;2023-09-18T02:17:05;7.57;;;4.80;;
15035;SDS011;7615;48.574;13.474;2023-09-18T02:19:32;5.65;;;5.15;;
15035;SDS011;7615;48.574;13.474;2023-09-18T02:21:59;6.53;;;5.50;;
15035;SDS011;7615;48.574;13.474;2023-09-18T02:24:27;5.85;;;5.30;;
15035;SDS011;7615;48.574;13.474;2023-09-18T02:26:55;8.30;;;5.30;;
15035;SDS011;7615;48.574;13.474;2023-09-18T02:29:22;9.15;;;5.65;;
15035;SDS011;7615;48.574;13.474;2023-09-18T02:31:53;6.13;;;5.32;;
15035;SDS011;7615;48.574;13.474;2023-09-18T02:34:21;5.20;;;4.70;;
15035;SDS011;7615;48.574;13.474;2023-09-18T02:36:49;5.45;;;4.95;;
15035;SDS011;7615;48.574;13.474;2023-09-18T02:39:17;5.47;;;4.97;;
15035;SDS011;7615;48.574;13.474;2023-09-18T02:41:45;4.88;;;4.43;;
15035;SDS011;7615;48.574;13.474;2023-09-18T02:44:12;4.90;;;4.47;;
15035;SDS011;7615;48.574;13.474;2023-09-18T02:46:41;5.55;;;4.88;;
15035;SDS011;7615;48.574;13.474;2023-09-18T02:49:10;5.82;;;5.32;;
15035;SDS011;7615;48.574;13.474;2023-09-18T02:51:38;6.10;;;5.50;;
15035;SDS011;7615;48.574;13.474;2023-09-18T02:54:05;6.13;;;5.63;;
15035;SDS011;7615;48.574;13.474;2023-09-18T02:56:33;7.00;;;6.07;;
15035;SDS011;7615;48.574;13.474;2023-09-18T02:59:01;9.27;;;6.97;;
15035;SDS011;7615;48.574;13.474;2023-09-18T03:01:29;7.35;;;5.50;;
15035;SDS011;7615;48.574;13.474;2023-09-18T03:03:56;5.65;;;5.00;;
15035;SDS011;7615;48.574;13.474;2023-09-18T03:06:25;8.02;;;5.72;;
15035;SDS011;7615;48.574;13.474;2023-09-18T03:08:52;6.38;;;5.80;;
15035;SDS011;7615;48.574;13.474;2023-09-18T03:11:20;7.90;;;6.28;;
15035;SDS011;7615;48.574;13.474;2023-09-18T03:13:52;7.18;;;6.07;;
15035;SDS011;7615;48.574;13.474;2023-09-18T03:16:19;10.10;;;5.80;;
15035;SDS011;7615;48.574;13.474;2023-09-18T03:18:47;5.80;;;5.30;;
15035;SDS011;7615;48.574;13.474;2023-09-18T03:21:15;6.82;;;4.90;;
15035;SDS011;7615;48.574;13.474;2023-09-18T03:23:44;5.13;;;4.65;;
15035;SDS011;7615;48.574;13.474;2023-09-18T03:26:11;5.05;;;4.65;;
15035;SDS011;7615;48.574;13.474;2023-09-18T03:28:38;13.45;;;5.47;;
15035;SDS011;7615;48.574;13.474;2023-09-18T03:31:06;8.77;;;5.85;;
15035;SDS011;7615;48.574;13.474;2023-09-18T03:33:34;5.63;;;5.10;;
15035;SDS011;7615;48.574;13.474;2023-09-18T03:36:02;6.32;;;5.43;;
15035;SDS011;7615;48.574;13.474;2023-09-18T03:38:30;7.28;;;4.65;;
15035;SDS011;7615;48.574;13.474;2023-09-18T03:41:00;5.18;;;4.68;;
15035;SDS011;7615;48.574;13.474;2023-09-18T03:43:28;6.32;;;4.60;;
15035;SDS011;7615;48.574;13.474;2023-09-18T03:46:02;6.32;;;5.10;;
15035;SDS011;7615;48.574;13.474;2023-09-18T03:48:30;7.22;;;5.90;;
15035;SDS011;7615;48.574;13.474;2023-09-18T03:51:01;5.65;;;5.15;;
15035;SDS011;7615;48.574;13.474;2023-09-18T03:53:29;8.82;;;5.18;;
15035;SDS011;7615;48.574;13.474;2023-09-18T03:55:56;6.63;;;5.78;;
15035;SDS011;7615;48.574;13.474;2023-09-18T03:58:25;6.00;;;4.70;;
15035;SDS011;7615;48.574;13.474;2023-09-18T04:00:54;5.57;;;5.07;;
15035;SDS011;7615;48.574;13.474;2023-09-18T04:03:21;5.75;;;5.25;;
15035;SDS011;7615;48.574;13.474;2023-09-18T04:05:51;8.98;;;6.20;;
15035;SDS011;7615;48.574;13.474;2023-09-18T04:08:18;19.10;;;7.47;;
15035;SDS011;7615;48.574;13.474;2023-09-18T04:10:46;9.77;;;6.80;;
15035;SDS011;7615;48.574;13.474;2023-09-18T04:13:13;18.52;;;7.63;;
15035;SDS011;7615;48.574;13.474;2023-09-18T04:15:42;9.63;;;6.43;;
15035;SDS011;7615;48.574;13.474;2023-09-18T04:18:11;6.72;;;5.80;;
15035;SDS011;7615;48.574;13.474;2023-09-18T04:20:38;5.78;;;5.22;;
15035;SDS011;7615;48.574;13.474;2023-09-18T04:23:18;5.72;;;5.07;;
15035;SDS011;7615;48.574;13.474;2023-09-18T04:25:47;6.90;;;5.25;;
15035;SDS011;7615;48.574;13.474;2023-09-18T04:28:15;5.53;;;4.93;;
15035;SDS011;7615;48.574;13.474;2023-09-18T04:30:46;6.55;;;5.50;;
15035;SDS011;7615;48.574;13.474;2023-09-18T04:33:13;5.78;;;5.18;;
15035;SDS011;7615;48.574;13.474;2023-09-18T04:35:41;5.85;;;5.35;;
15035;SDS011;7615;48.574;13.474;2023-09-18T04:38:09;6.47;;;5.63;;
15035;SDS011;7615;48.574;13.474;2023-09-18T04:40:37;5.82;;;5.18;;
15035;SDS011;7615;48.574;13.474;2023-09-18T04:43:04;5.53;;;4.28;;
15035;SDS011;7615;48.574;13.474;2023-09-18T04:45:31;5.13;;;4.63;;
15035;SDS011;7615;48.574;13.474;2023-09-18T04:48:00;7.13;;;4.50;;
15035;SDS011;7615;48.574;13.474;2023-09-18T04:50:30;5.57;;;4.95;;
15035;SDS011;7615;48.574;13.474;2023-09-18T04:52:59;6.40;;;5.25;;
15035;SDS011;7615;48.574;13.474;2023-09-18T04:55:26;6.15;;;5.55;;
15035;SDS011;7615;48.574;13.474;2023-09-18T04:57:53;6.35;;;5.75;;
15035;SDS011;7615;48.574;13.474;2023-09-18T05:00:20;7.47;;;5.63;;
15035;SDS011;7615;48.574;13.474;2023-09-18T05:02:51;6.05;;;5.45;;
15035;SDS011;7615;48.574;13.474;2023-09-18T05:05:23;7.72;;;5.70;;
15035;SDS011;7615;48.574;13.474;2023-09-18T05:07:51;6.43;;;5.82;;
15035;SDS011;7615;48.574;13.474;2023-09-18T05:10:18;8.90;;;5.05;;
15035;SDS011;7615;48.574;13.474;2023-09-18T05:12:48;6.47;;;5.65;;
15035;SDS011;7615;48.574;13.474;2023-09-18T05:15:25;6.63;;;5.07;;
15035;SDS011;7615;48.574;13.474;2023-09-18T05:17:54;5.00;;;4.47;;
15035;SDS011;7615;48.574;13.474;2023-09-18T05:20:25;6.00;;;5.20;;
15035;SDS011;7615;48.574;13.474;2023-09-18T05:22:53;6.70;;;5.28;;
15035;SDS011;7615;48.574;13.474;2023-09-18T05:25:20;6.20;;;4.70;;
15035;SDS011;7615;48.574;13.474;2023-09-18T05:27:48;6.50;;;6.00;;
15035;SDS011;7615;48.574;13.474;2023-09-18T05:30:23;7.05;;;6.07;;
15035;SDS011;7615;48.574;13.474;2023-09-18T05:32:53;6.72;;;5.82;;
15035;SDS011;7615;48.574;13.474;2023-09-18T05:35:20;6.82;;;6.03;;
15035;SDS011;7615;48.574;13.474;2023-09-18T05:37:50;6.38;;;5.88;;
15035;SDS011;7615;48.574;13.474;2023-09-18T05:40:19;6.75;;;6.05;;
15035;SDS011;7615;48.574;13.474;2023-09-18T05:42:47;6.72;;;5.72;;
15035;SDS011;7615;48.574;13.474;2023-09-18T05:45:14;7.32;;;6.03;;
15035;SDS011;7615;48.574;13.474;2023-09-18T05:47:42;8.20;;;6.05;;
15035;SDS011;7615;48.574;13.474;2023-09-18T05:50:10;9.63;;;6.47;;
15035;SDS011;7615;48.574;13.474;2023-09-18T05:52:41;21.25;;;6.22;;
15035;SDS011;7615;48.574;13.474;2023-09-18T05:55:10;19.45;;;6.10;;
15035;SDS011;7615;48.574;13.474;2023-09-18T06:02:58;5.43;;;4.72;;
15035;SDS011;7615;48.574;13.474;2023-09-18T06:05:26;5.28;;;4.68;;
15035;SDS011;7615;48.574;13.474;2023-09-18T06:07:56;8.40;;;5.05;;
15035;SDS011;7615;48.574;13.474;2023-09-18T06:10:25;7.50;;;4.80;;
15035;SDS011;7615;48.574;13.474;2023-09-18T06:12:52;5.55;;;5.05;;
15035;SDS011;7615;48.574;13.474;2023-09-18T06:15:19;7.13;;;5.55;;
15035;SDS011;7615;48.574;13.474;2023-09-18T06:17:46;9.88;;;5.63;;
15035;SDS011;7615;48.574;13.474;2023-09-18T06:20:13;12.98;;;6.70;;
15035;SDS011;7615;48.574;13.474;2023-09-18T06:22:41;26.85;;;8.70;;
15035;SDS011;7615;48.574;13.474;2023-09-18T06:25:08;15.18;;;7.85;;
15035;SDS011;7615;48.574;13.474;2023-09-18T06:27:40;6.43;;;5.82;;
15035;SDS011;7615;48.574;13.474;2023-09-18T06:30:08;7.85;;;6.10;;
15035;SDS011;7615;48.574;13.474;2023-09-18T06:32:36;8.73;;;6.40;;
15035;SDS011;7615;48.574;13.474;2023-09-18T06:35:03;10.45;;;5.93;;
15035;SDS011;7615;48.574;13.474;2023-09-18T06:37:33;7.10;;;5.97;;
15035;SDS011;7615;48.574;13.474;2023-09-18T06:40:00;7.22;;;5.63;;
15035;SDS011;7615;48.574;13.474;2023-09-18T06:42:29;6.60;;;6.00;;
15035;SDS011;7615;48.574;13.474;2023-09-18T06:44:57;8.32;;;6.45;;
15035;SDS011;7615;48.574;13.474;2023-09-18T06:47:26;8.70;;;6.70;;
15035;SDS011;7615;48.574;13.474;2023-09-18T06:49:53;7.50;;;6.60;;
15035;SDS011;7615;48.574;13.474;2023-09-18T06:52:20;7.20;;;6.18;;
15035;SDS011;7615;48.574;13.474;2023-09-18T06:54:48;13.20;;;5.93;;
15035;SDS011;7615;48.574;13.474;2023-09-18T06:57:16;6.65;;;5.90;;
15035;SDS011;7615;48.574;13.474;2023-09-18T06:59:43;8.90;;;7.22;;
15035;SDS011;7615;48.574;13.474;2023-09-18T07:02:13;8.27;;;7.10;;
15035;SDS011;7615;48.574;13.474;2023-09-18T07:04:42;8.30;;;6.60;;
15035;SDS011;7615;48.574;13.474;2023-09-18T07:07:11;8.50;;;6.82;;
15035;SDS011;7615;48.574;13.474;2023-09-18T07:09:39;8.85;;;6.63;;
15035;SDS011;7615;48.574;13.474;2023-09-18T07:12:07;7.88;;;6.97;;
15035;SDS011;7615;48.574;13.474;2023-09-18T07:14:37;12.15;;;7.72;;
15035;SDS011;7615;48.574;13.474;2023-09-18T07:17:05;7.35;;;6.65;;
15035;SDS011;7615;48.574;13.474;2023-09-18T07:19:34;8.88;;;6.40;;
15035;SDS011;7615;48.574;13.474;2023-09-18T07:22:01;6.32;;;5.82;;
15035;SDS011;7615;48.574;13.474;2023-09-18T07:24:29;10.70;;;7.85;;
15035;SDS011;7615;48.574;13.474;2023-09-18T07:26:56;8.00;;;6.53;;
15035;SDS011;7615;48.574;13.474;2023-09-18T07:29:23;10.35;;;6.63;;
15035;SDS011;7615;48.574;13.474;2023-09-18T07:31:51;7.45;;;6.60;;
15035;SDS011;7615;48.574;13.474;2023-09-18T07:34:21;10.00;;;6.70;;
15035;SDS011;7615;48.574;13.474;2023-09-18T07:36:50;7.03;;;6.30;;
15035;SDS011;7615;48.574;13.474;2023-09-18T07:39:21;7.68;;;6.97;;
15035;SDS011;7615;48.574;13.474;2023-09-18T07:41:48;8.15;;;5.85;;
15035;SDS011;7615;48.574;13.474;2023-09-18T07:44:18;12.10;;;6.40;;
15035;SDS011;7615;48.574;13.474;2023-09-18T07:46:46;6.90;;;5.25;;
15035;SDS011;7615;48.574;13.474;2023-09-18T07:49:13;8.65;;;5.53;;
15035;SDS011;7615;48.574;13.474;2023-09-18T07:51:40;5.53;;;4.90;;
15035;SDS011;7615;48.574;13.474;2023-09-18T07:54:13;7.75;;;5.38;;
15035;SDS011;7615;48.574;13.474;2023-09-18T07:56:41;5.53;;;5.03;;
15035;SDS011;7615;48.574;13.474;2023-09-18T07:59:08;7.82;;;5.20;;
15035;SDS011;7615;48.574;13.474;2023-09-18T08:01:35;6.63;;;5.50;;
15035;SDS011;7615;48.574;13.474;2023-09-18T08:04:02;6.65;;;5.47;;
15035;SDS011;7615;48.574;13.474;2023-09-18T08:06:30;10.93;;;4.93;;
15035;SDS011;7615;48.574;13.474;2023-09-18T08:08:58;9.32;;;4.53;;
15035;SDS011;7615;48.574;13.474;2023-09-18T08:11:26;5.43;;;4.75;;
15035;SDS011;7615;48.574;13.474;2023-09-18T08:13:53;8.55;;;5.25;;
15035;SDS011;7615;48.574;13.474;2023-09-18T08:16:21;5.50;;;5.00;;
15035;SDS011;7615;48.574;13.474;2023-09-18T08:18:48;7.43;;;5.18;;
15035;SDS011;7615;48.574;13.474;2023-09-18T08:21:15;6.55;;;5.18;;
15035;SDS011;7615;48.574;13.474;2023-09-18T08:23:42;8.98;;;5.32;;
15035;SDS011;7615;48.574;13.474;2023-09-18T08:26:10;7.63;;;6.40;;
15035;SDS011;7615;48.574;13.474;2023-09-18T08:28:38;8.50;;;5.50;;
15035;SDS011;7615;48.574;13.474;2023-09-18T08:31:09;5.93;;;4.70;;
15035;SDS011;7615;48.574;13.474;2023-09-18T08:33:41;5.07;;;4.60;;
15035;SDS011;7615;48.574;13.474;2023-09-18T08:36:11;6.53;;;5.07;;
15035;SDS011;7615;48.574;13.474;2023-09-18T08:38:41;5.18;;;4.68;;
15035;SDS011;7615;48.574;13.474;2023-09-18T08:41:11;8.40;;;4.88;;
15035;SDS011;7615;48.574;13.474;2023-09-18T08:43:40;7.70;;;4.95;;
15035;SDS011;7615;48.574;13.474;2023-09-18T08:46:10;6.07;;;4.78;;
15035;SDS011;7615;48.574;13.474;2023-09-18T08:48:38;7.82;;;5.20;;
15035;SDS011;7615;48.574;13.474;2023-09-18T08:51:06;6.32;;;5.60;;
15035;SDS011;7615;48.574;13.474;2023-09-18T08:53:34;8.85;;;5.18;;
15035;SDS011;7615;48.574;13.474;2023-09-18T08:56:02;5.90;;;4.70;;
15035;SDS011;7615;48.574;13.474;2023-09-18T08:58:31;6.03;;;4.45;;
15035;SDS011;7615;48.574;13.474;2023-09-18T09:01:02;5.65;;;4.32;;
15035;SDS011;7615;48.574;13.474;2023-09-18T09:03:31;5.40;;;4.90;;
15035;SDS011;7615;48.574;13.474;2023-09-18T09:05:59;4.82;;;4.50;;
15035;SDS011;7615;48.574;13.474;2023-09-18T09:08:27;5.57;;;4.50;;
15035;SDS011;7615;48.574;13.474;2023-09-18T09:10:55;5.30;;;4.38;;
15035;SDS011;7615;48.574;13.474;2023-09-18T09:13:24;4.90;;;4.50;;
15035;SDS011;7615;48.574;13.474;2023-09-18T09:15:53;5.10;;;4.38;;
15035;SDS011;7615;48.574;13.474;2023-09-18T09:18:23;5.13;;;4.38;;
15035;SDS011;7615;48.574;13.474;2023-09-18T09:20:59;4.80;;;4.30;;
15035;SDS011;7615;48.574;13.474;2023-09-18T09:23:29;5.75;;;4.25;;
15035;SDS011;7615;48.574;13.474;2023-09-18T09:26:11;6.95;;;4.43;;
15035;SDS011;7615;48.574;13.474;2023-09-18T09:28:39;5.75;;;4.82;;
15035;SDS011;7615;48.574;13.474;2023-09-18T09:31:08;4.65;;;4.30;;
15035;SDS011;7615;48.574;13.474;2023-09-18T09:33:41;5.78;;;5.15;;
15035;SDS011;7615;48.574;13.474;2023-09-18T09:36:20;4.88;;;4.47;;
15035;SDS011;7615;48.574;13.474;2023-09-18T09:38:57;10.18;;;5.90;;
15035;SDS011;7615;48.574;13.474;2023-09-18T09:41:25;4.82;;;4.43;;
15035;SDS011;7615;48.574;13.474;2023-09-18T09:43:55;6.10;;;5.50;;
15035;SDS011;7615;48.574;13.474;2023-09-18T09:46:25;5.47;;;4.97;;
15035;SDS011;7615;48.574;13.474;2023-09-18T09:49:05;8.27;;;7.40;;
15035;SDS011;7615;48.574;13.474;2023-09-18T09:51:35;4.40;;;4.10;;
15035;SDS011;7615;48.574;13.474;2023-09-18T09:54:03;4.93;;;4.30;;
15035;SDS011;7615;48.574;13.474;2023-09-18T09:56:42;8.77;;;4.20;;
15035;SDS011;7615;48.574;13.474;2023-09-18T09:59:11;4.70;;;4.30;;
15035;SDS011;7615;48.574;13.474;2023-09-18T10:01:40;7.07;;;4.60;;
15035;SDS011;7615;48.574;13.474;2023-09-18T10:04:19;4.82;;;4.07;;
15035;SDS011;7615;48.574;13.474;2023-09-18T10:06:48;4.20;;;3.85;;
15035;SDS011;7615;48.574;13.474;2023-09-18T10:09:19;5.43;;;4.28;;
15035;SDS011;7615;48.574;13.474;2023-09-18T10:11:48;10.65;;;6.93;;
15035;SDS011;7615;48.574;13.474;2023-09-18T10:14:17;5.20;;;4.70;;
15035;SDS011;7615;48.574;13.474;2023-09-18T10:16:45;5.88;;;4.95;;
15035;SDS011;7615;48.574;13.474;2023-09-18T10:19:20;5.38;;;4.05;;
15035;SDS011;7615;48.574;13.474;2023-09-18T10:21:50;4.10;;;3.80;;
15035;SDS011;7615;48.574;13.474;2023-09-18T10:24:24;4.03;;;3.63;;
15035;SDS011;7615;48.574;13.474;2023-09-18T10:26:55;3.90;;;3.47;;
15035;SDS011;7615;48.574;13.474;2023-09-18T10:29:23;3.92;;;3.63;;
15035;SDS011;7615;48.574;13.474;2023-09-18T10:31:56;4.22;;;3.88;;
15035;SDS011;7615;48.574;13.474;2023-09-18T10:34:27;4.72;;;4.38;;
15035;SDS011;7615;48.574;13.474;2023-09-18T10:36:55;4.50;;;4.05;;
15035;SDS011;7615;48.574;13.474;2023-09-18T10:39:25;5.85;;;4.40;;
15035;SDS011;7615;48.574;13.474;2023-09-18T10:41:55;4.72;;;4.18;;
15035;SDS011;7615;48.574;13.474;2023-09-18T10:44:26;4.82;;;4.32;;
15035;SDS011;7615;48.574;13.474;2023-09-18T10:46:55;6.75;;;4.40;;
15035;SDS011;7615;48.574;13.474;2023-09-18T10:49:23;5.00;;;4.60;;
15035;SDS011;7615;48.574;13.474;2023-09-18T10:51:54;5.88;;;3.95;;
15035;SDS011;7615;48.574;13.474;2023-09-18T10:54:24;6.43;;;3.85;;
15035;SDS011;7615;48.574;13.474;2023-09-18T10:56:52;5.80;;;4.07;;
15035;SDS011;7615;48.574;13.474;2023-09-18T10:59:20;5.40;;;4.20;;
15035;SDS011;7615;48.574;13.474;2023-09-18T11:01:48;5.32;;;4.40;;
15035;SDS011;7615;48.574;13.474;2023-09-18T11:04:17;4.40;;;4.00;;
15035;SDS011;7615;48.574;13.474;2023-09-18T11:07:03;4.57;;;4.18;;
15035;SDS011;7615;48.574;13.474;2023-09-18T11:09:31;4.93;;;4.03;;
15035;SDS011;7615;48.574;13.474;2023-09-18T11:12:03;5.47;;;4.18;;
15035;SDS011;7615;48.574;13.474;2023-09-18T11:14:41;5.03;;;4.38;;
15035;SDS011;7615;48.574;13.474;2023-09-18T11:20:08;10.73;;;3.92;;
15035;SDS011;7615;48.574;13.474;2023-09-18T11:22:39;4.78;;;3.90;;
15035;SDS011;7615;48.574;13.474;2023-09-18T11:25:28;4.13;;;3.40;;
15035;SDS011;7615;48.574;13.474;2023-09-18T11:27:55;3.97;;;3.67;;
15035;SDS011;7615;48.574;13.474;2023-09-18T11:30:22;3.60;;;3.33;;
15035;SDS011;7615;48.574;13.474;2023-09-18T11:32:50;8.35;;;3.67;;
15035;SDS011;7615;48.574;13.474;2023-09-18T11:35:22;3.97;;;3.58;;
15035;SDS011;7615;48.574;13.474;2023-09-18T11:47:03;4.00;;;3.55;;
15035;SDS011;7615;48.574;13.474;2023-09-18T11:49:37;5.00;;;4.60;;
15035;SDS011;7615;48.574;13.474;2023-09-18T11:52:05;3.85;;;3.55;;
15035;SDS011;7615;48.574;13.474;2023-09-18T11:54:32;6.32;;;4.00;;
15035;SDS011;7615;48.574;13.474;2023-09-18T11:57:02;4.75;;;3.60;;
15035;SDS011;7615;48.574;13.474;2023-09-18T11:59:38;3.92;;;3.63;;
15035;SDS011;7615;48.574;13.474;2023-09-18T12:02:09;7.00;;;5.10;;
15035;SDS011;7615;48.574;13.474;2023-09-18T12:04:45;4.10;;;3.58;;
15035;SDS011;7615;48.574;13.474;2023-09-18T12:07:13;5.97;;;3.47;;
15035;SDS011;7615;48.574;13.474;2023-09-18T12:09:40;4.40;;;3.20;;
15035;SDS011;7615;48.574;13.474;2023-09-18T12:12:08;6.72;;;5.22;;
15035;SDS011;7615;48.574;13.474;2023-09-18T12:14:39;7.50;;;3.30;;
15035;SDS011;7615;48.574;13.474;2023-09-18T12:17:09;6.43;;;3.30;;
15035;SDS011;7615;48.574;13.474;2023-09-18T12:19:49;5.40;;;3.40;;
15035;SDS011;7615;48.574;13.474;2023-09-18T12:22:22;3.78;;;3.47;;
15035;SDS011;7615;48.574;13.474;2023-09-18T12:24:50;4.45;;;3.50;;
15035;SDS011;7615;48.574;13.474;2023-09-18T12:27:18;5.32;;;4.00;;
15035;SDS011;7615;48.574;13.474;2023-09-18T12:29:45;4.75;;;3.50;;
15035;SDS011;7615;48.574;13.474;2023-09-18T12:32:23;10.57;;;3.90;;
15035;SDS011;7615;48.574;13.474;2023-09-18T12:34:50;5.38;;;3.78;;
15035;SDS011;7615;48.574;13.474;2023-09-18T12:37:19;6.47;;;3.67;;
15035;SDS011;7615;48.574;13.474;2023-09-18T12:39:47;3.63;;;3.42;;
15035;SDS011;7615;48.574;13.474;2023-09-18T12:42:17;7.72;;;4.05;;
15035;SDS011;7615;48.574;13.474;2023-09-18T12:44:46;4.05;;;3.63;;
15035;SDS011;7615;48.574;13.474;2023-09-18T12:47:13;4.05;;;3.75;;
15035;SDS011;7615;48.574;13.474;2023-09-18T12:49:42;7.20;;;4.10;;
15035;SDS011;7615;48.574;13.474;2023-09-18T12:52:09;3.92;;;3.63;;
15035;SDS011;7615;48.574;13.474;2023-09-18T12:54:39;9.52;;;4.10;;
15035;SDS011;7615;48.574;13.474;2023-09-18T12:57:07;4.15;;;3.75;;
15035;SDS011;7615;48.574;13.474;2023-09-18T12:59:36;4.40;;;4.00;;
15035;SDS011;7615;48.574;13.474;2023-09-18T13:02:05;7.75;;;3.90;;
15035;SDS011;7615;48.574;13.474;2023-09-18T13:04:34;8.80;;;4.28;;
15035;SDS011;7615;48.574;13.474;2023-09-18T13:07:04;5.13;;;3.92;;
15035;SDS011;7615;48.574;13.474;2023-09-18T13:09:39;4.45;;;4.05;;
15035;SDS011;7615;48.574;13.474;2023-09-18T13:12:07;5.50;;;4.13;;
15035;SDS011;7615;48.574;13.474;2023-09-18T13:17:24;6.10;;;4.03;;
15035;SDS011;7615;48.574;13.474;2023-09-18T13:19:52;7.95;;;4.20;;
15035;SDS011;7615;48.574;13.474;2023-09-18T13:22:25;8.30;;;4.35;;
15035;SDS011;7615;48.574;13.474;2023-09-18T13:24:56;8.43;;;4.32;;
15035;SDS011;7615;48.574;13.474;2023-09-18T13:27:24;5.65;;;4.20;;
15035;SDS011;7615;48.574;13.474;2023-09-18T13:29:52;5.35;;;4.15;;
15035;SDS011;7615;48.574;13.474;2023-09-18T13:32:20;6.97;;;3.80;;
15035;SDS011;7615;48.574;13.474;2023-09-18T13:34:50;11.13;;;4.57;;
15035;SDS011;7615;48.574;13.474;2023-09-18T13:37:21;6.22;;;3.75;;
15035;SDS011;7615;48.574;13.474;2023-09-18T13:39:53;6.18;;;4.32;;
15035;SDS011;7615;48.574;13.474;2023-09-18T13:42:22;9.63;;;4.28;;
15035;SDS011;7615;48.574;13.474;2023-09-18T13:45:04;6.82;;;4.20;;
15035;SDS011;7615;48.574;13.474;2023-09-18T13:47:33;8.43;;;4.57;;
15035;SDS011;7615;48.574;13.474;2023-09-18T13:50:01;6.68;;;4.10;;
15035;SDS011;7615;48.574;13.474;2023-09-18T13:52:29;7.30;;;4.32;;
15035;SDS011;7615;48.574;13.474;2023-09-18T13:55:00;4.50;;;4.05;;
15035;SDS011;7615;48.574;13.474;2023-09-18T13:57:30;7.75;;;4.40;;
15035;SDS011;7615;48.574;13.474;2023-09-18T13:59:59;5.72;;;4.10;;
15035;SDS011;7615;48.574;13.474;2023-09-18T14:02:30;6.85;;;4.60;;
15035;SDS011;7615;48.574;13.474;2023-09-18T14:04:58;7.30;;;4.55;;
15035;SDS011;7615;48.574;13.474;2023-09-18T14:07:25;4.93;;;4.43;;
15035;SDS011;7615;48.574;13.474;2023-09-18T14:09:53;10.25;;;4.28;;
15035;SDS011;7615;48.574;13.474;2023-09-18T14:12:21;11.70;;;4.70;;
15035;SDS011;7615;48.574;13.474;2023-09-18T14:14:49;9.90;;;4.90;;
15035;SDS011;7615;48.574;13.474;2023-09-18T14:17:16;6.55;;;4.38;;
15035;SDS011;7615;48.574;13.474;2023-09-18T14:19:46;11.93;;;4.38;;
15035;SDS011;7615;48.574;13.474;2023-09-18T14:22:14;10.75;;;4.80;;
15035;SDS011;7615;48.574;13.474;2023-09-18T14:24:41;11.65;;;5.10;;
15035;SDS011;7615;48.574;13.474;2023-09-18T14:27:09;13.80;;;4.18;;
15035;SDS011;7615;48.574;13.474;2023-09-18T14:29:40;8.30;;;4.22;;
15035;SDS011;7615;48.574;13.474;2023-09-18T14:32:07;9.60;;;4.20;;
15035;SDS011;7615;48.574;13.474;2023-09-18T14:34:34;17.45;;;4.25;;
15035;SDS011;7615;48.574;13.474;2023-09-18T14:37:01;10.07;;;3.90;;
15035;SDS011;7615;48.574;13.474;2023-09-18T14:39:31;8.18;;;3.53;;
15035;SDS011;7615;48.574;13.474;2023-09-18T14:41:59;10.30;;;4.00;;
15035;SDS011;7615;48.574;13.474;2023-09-18T14:44:27;11.75;;;3.78;;
15035;SDS011;7615;48.574;13.474;2023-09-18T14:47:01;9.32;;;4.40;;
15035;SDS011;7615;48.574;13.474;2023-09-18T14:49:28;13.07;;;3.83;;
15035;SDS011;7615;48.574;13.474;2023-09-18T14:51:57;9.70;;;3.67;;
15035;SDS011;7615;48.574;13.474;2023-09-18T14:54:25;6.57;;;3.42;;
15035;SDS011;7615;48.574;13.474;2023-09-18T14:56:53;11.23;;;3.88;;
15035;SDS011;7615;48.574;13.474;2023-09-18T14:59:21;11.00;;;3.30;;
15035;SDS011;7615;48.574;13.474;2023-09-18T15:01:48;7.60;;;3.83;;
15035;SDS011;7615;48.574;13.474;2023-09-18T15:04:17;7.75;;;3.20;;
15035;SDS011;7615;48.574;13.474;2023-09-18T15:06:45;9.02;;;3.35;;
15035;SDS011;7615;48.574;13.474;2023-09-18T15:09:12;6.75;;;2.90;;
15035;SDS011;7615;48.574;13.474;2023-09-18T15:11:39;13.07;;;3.72;;
15035;SDS011;7615;48.574;13.474;2023-09-18T15:14:06;5.75;;;2.92;;
15035;SDS011;7615;48.574;13.474;2023-09-18T15:16:36;8.23;;;2.80;;